This is the latest recevied weather packets stored in our database for station/object KC4ANB. If no packets are shown the sender has not sent any weather packets the latest 10 day(s).
| Time | Temp. | Humidity | Pressure | Rain* | Wind** | Luminosity | Snow |
|---|---|---|---|---|---|---|---|
| 1777772957 | 12.22° C | 72% | 1015.7 hPa | 0 mm | - | - | - |
| 1777770557 | 13.33° C | 66% | 1015.1 hPa | 0 mm | - | - | - |
| 1777769957 | 13.33° C | 65% | 1015 hPa | 0 mm | - | - | - |
| 1777768757 | 15° C | 58% | 1014.8 hPa | 0 mm | - | - | - |
| 1777762157 | 17.78° C | 44% | 1014.4 hPa | 0 mm | - | - | - |
| 1777757977 | 18.33° C | 43% | 1014.3 hPa | 0 mm | - | - | - |
| 1777752557 | 17.78° C | 42% | 1014.3 hPa | 0 mm | - | - | - |
| 1777751956 | 17.78° C | 41% | 1014.4 hPa | 0 mm | - | - | - |
| 1777750757 | 17.78° C | 41% | 1014.7 hPa | 0 mm | - | - | - |
| 1777749557 | 17.78° C | 43% | 1014.4 hPa | 0 mm | - | - | - |
| 1777748997 | 17.78° C | 44% | 1014.4 hPa | 0 mm | - | - | - |
| 1777738756 | 15° C | 60% | 1015.4 hPa | 0 mm | - | - | - |
| 1777738156 | 14.44° C | 62% | 1015.5 hPa | 0 mm | - | - | - |
| 1777729756 | 12.78° C | 66% | 1013.9 hPa | 0 mm | - | - | - |
| 1777724956 | 11.67° C | 67% | 1013.2 hPa | 0 mm | - | - | - |
| 1777724356 | 11.67° C | 68% | 1013.2 hPa | 0 mm | - | - | - |
| 1777721956 | 11.67° C | 66% | 1012.9 hPa | 0 mm | - | - | - |
| 1777717156 | 12.22° C | 65% | 1013 hPa | 0 mm | - | - | - |
| 1777714157 | 12.22° C | 65% | 1012.5 hPa | 0 mm | - | - | - |
| 1777712958 | 12.22° C | 65% | 1012.5 hPa | 0 mm | - | - | - |
| 1777705785 | 13.33° C | 76% | 1012.9 hPa | 0 mm | - | - | - |
| 1777702336 | 13.89° C | 78% | 1013.1 hPa | 0 mm | - | - | - |
| 1777690937 | 13.89° C | 83% | 1013.3 hPa | 0 mm | - | - | - |
| 1777687937 | 14.44° C | 82% | 1013.6 hPa | 0 mm | - | - | - |
| 1777685537 | 14.44° C | 78% | 1013.2 hPa | 0 mm | - | - | - |
* Rain latest hour (hover to see other rain measurements)
** Current wind speed in m/s (hover to see current wind gust speed)